Hlavní strana
METAR-TAF:

METAR-TAF

Letiště :

Letiště Moskva-Vnukovo

Moskva-Vnukovo, Rusko

zeměpisná šířka: 55-39N, zeměpisná délka: 037-16E, výška: 203 m

Aktuální stav počasí

Zpráva byla vytvořena před 42 minutami, v 17:30 UTC
Severozápadní vítr 4 kt, proměnlivý mezi západním a severním
Teplota -17°C
Vlhkost vzduchu 77%
Tlak 1016 hPa
Viditelnost: 7000 m

METAR: UUWW 181730Z 32002MPS 280V010 7000 NSC M17/M20 Q1016 R06/810350 NOSIG

Čas: 21:12 (18:12 UTC)

Předpověď počasí

Zpráva byla vytvořena před 1 hodinou a 16 minutami, v 16:56 UTC
Předpověď platná od 18 v 18 UTC do 19 v 18 UTC
vítr z různých směrů 2 kt
Viditelnost: 6000 m
Skoro jasno ve výšce 300 ft
Polojasno ve výšce 1600 ft
Dočasný
od 18 v 18 UTC do 19 v 08 UTC
Viditelnost: 0900 m
Oblačno až skoro zataženo ve výšce 200 ft
mrznoucí mlha

TAF: UUWW 181656Z 1818/1918 VRB01MPS 6000 FEW003 SCT016 TXM16/1912Z TNM21/1904Z TEMPO 1818/1908 0900 FZFG BKN002

Stav a předpovědi počasí z více než 4 000 letišť (zprávy METAR a TAF).

Červené a žluté tečky na mapě představují dostupné meteorologické stanice.

Když kurzor umístíte na tečku, zobrazí se název stanice.

Pak kliknutím zobrazíte stav a předpověď počasí.

Chcete-li změnit mapu, kliknutím na zelené tlačítko se znaménkem +mapu přiblížíte, kliknutím na zelené tlačítko se znaménkem – mapu oddálíte a kliknutím na zelené šipky přejdete na sousední mapy.


METAR-TAF: